Time;durP1;ratioP1;P1;durP2;ratioP2;P2;SDS_P1;SDS_P2;PMS_P1;PMS_P2;Temp;Humidity;BMP_temperature;BMP_pressure;BME280_temperature;BME280_humidity;BME280_pressure;Samples;Min_cycle;Max_cycle;Signal;HPM_P1;HPM_P2
2021/07/04 00:02:28;;;;;;;9.75;5.53;;;;;;;18.38;100.00;100124.53;5013580;28;20049;-67
2021/07/04 00:05:15;;;;;;;8.73;6.80;;;;;;;18.34;100.00;100123.22;5014351;28;20399;-67
2021/07/04 00:07:59;;;;;;;11.02;7.07;;;;;;;18.30;100.00;100121.16;5013207;28;20462;-66
2021/07/04 00:10:48;;;;;;;7.85;6.55;;;;;;;18.30;100.00;100116.56;5013848;28;20411;-67
2021/07/04 00:13:32;;;;;;;10.63;7.60;;;;;;;18.25;100.00;100119.00;5013318;28;20123;-67
2021/07/04 00:16:16;;;;;;;10.13;7.30;;;;;;;18.23;100.00;100126.44;5013417;28;20048;-64
2021/07/04 00:19:00;;;;;;;9.38;7.65;;;;;;;18.27;100.00;100122.34;4999529;28;20053;-67
2021/07/04 00:21:44;;;;;;;7.97;6.68;;;;;;;18.27;100.00;100116.09;5013137;28;20572;-67
2021/07/04 00:24:28;;;;;;;;;;;;;;;18.21;100.00;100115.00;5013377;28;20049;-67
2021/07/04 00:27:12;;;;;;;8.95;7.40;;;;;;;18.24;100.00;100106.53;5013976;28;19920;-67
2021/07/04 00:29:56;;;;;;;8.05;7.03;;;;;;;18.20;100.00;100110.66;5026540;28;20048;-67
2021/07/04 00:32:41;;;;;;;8.65;6.68;;;;;;;18.19;100.00;100109.00;5013910;28;20465;-67
2021/07/04 00:35:25;;;;;;;7.85;6.70;;;;;;;18.13;100.00;100112.47;5013094;28;20092;-66
2021/07/04 00:38:09;;;;;;;10.15;6.78;;;;;;;18.03;100.00;100109.25;5026698;28;20048;-67
2021/07/04 00:40:53;;;;;;;12.15;6.50;;;;;;;18.03;100.00;100098.47;5013027;28;20092;-66
2021/07/04 00:43:37;;;;;;;9.05;7.15;;;;;;;17.96;100.00;100102.16;5012930;28;20056;-67
2021/07/04 00:46:21;;;;;;;9.25;7.13;;;;;;;17.91;100.00;100105.44;5012636;28;20131;-66
2021/07/04 00:49:06;;;;;;;7.90;6.90;;;;;;;17.86;100.00;100097.13;5013675;28;20052;-67
2021/07/04 00:51:50;;;;;;;12.40;7.63;;;;;;;17.79;100.00;100090.81;5012838;28;20049;-67
2021/07/04 00:54:35;;;;;;;8.65;7.63;;;;;;;17.82;100.00;100097.69;5012868;28;20160;-67
2021/07/04 00:57:19;;;;;;;9.63;7.60;;;;;;;17.84;100.00;100091.09;5012465;28;20096;-67
2021/07/04 01:00:09;;;;;;;10.40;7.65;;;;;;;17.85;100.00;100094.59;5012804;28;20561;-67
2021/07/04 01:02:53;;;;;;;10.35;7.07;;;;;;;17.86;100.00;100089.03;5026660;28;20125;-67
2021/07/04 01:05:39;;;;;;;9.85;7.47;;;;;;;17.89;100.00;100083.22;5012705;28;20068;-67
2021/07/04 01:08:23;;;;;;;10.52;7.28;;;;;;;17.91;100.00;100089.25;5012669;28;20132;-67
2021/07/04 01:11:07;;;;;;;9.32;7.20;;;;;;;17.96;100.00;100085.97;5012654;28;20048;-67
2021/07/04 01:13:51;;;;;;;8.95;7.35;;;;;;;17.95;100.00;100084.31;5012879;28;20049;-67
2021/07/04 01:16:35;;;;;;;8.13;6.57;;;;;;;17.97;100.00;100090.34;5012383;28;20080;-67
2021/07/04 01:19:21;;;;;;;8.82;6.82;;;;;;;17.98;100.00;100084.75;5012579;28;20112;-67
2021/07/04 01:22:05;;;;;;;8.60;7.28;;;;;;;18.00;100.00;100087.28;5012575;28;20116;-66
2021/07/04 01:24:49;;;;;;;8.65;7.50;;;;;;;18.02;100.00;100087.91;5012593;28;20139;-67
2021/07/04 01:27:33;;;;;;;7.88;7.05;;;;;;;18.06;100.00;100084.63;5013244;28;20123;-67
2021/07/04 01:30:18;;;;;;;12.18;8.15;;;;;;;18.11;100.00;100082.16;5013457;28;20117;-65
2021/07/04 01:33:03;;;;;;;13.07;8.00;;;;;;;18.14;100.00;100073.66;5012184;28;20434;-67
2021/07/04 01:35:47;;;;;;;7.18;6.47;;;;;;;18.17;100.00;100070.59;5026465;28;20111;-67
2021/07/04 01:38:32;;;;;;;11.32;7.78;;;;;;;18.16;100.00;100071.63;5012384;28;20056;-65
2021/07/04 01:41:16;;;;;;;9.00;6.85;;;;;;;18.21;100.00;100073.72;5016248;28;20059;-67
2021/07/04 01:44:00;;;;;;;10.30;7.43;;;;;;;18.22;100.00;100075.38;5030220;28;20049;-67
2021/07/04 01:46:44;;;;;;;8.75;7.20;;;;;;;18.25;100.00;100080.38;5017282;28;20061;-67
2021/07/04 01:49:28;;;;;;;8.85;7.35;;;;;;;18.27;100.00;100074.59;5017165;28;20065;-67
2021/07/04 01:52:12;;;;;;;9.88;7.00;;;;;;;18.32;100.00;100070.50;5016984;28;20048;-67
2021/07/04 01:54:56;;;;;;;9.50;7.35;;;;;;;18.32;100.00;100071.31;5015775;28;20048;-66
2021/07/04 01:57:40;;;;;;;;;;;;;;;18.32;100.00;100065.94;5017378;28;20515;-67
2021/07/04 02:00:27;;;;;;;8.97;7.17;;;;;;;18.34;100.00;100077.34;5015837;28;19922;-67
2021/07/04 02:03:12;;;;;;;11.27;7.35;;;;;;;18.35;100.00;100076.34;5015991;28;20096;-66
2021/07/04 02:05:56;;;;;;;10.32;7.50;;;;;;;18.35;100.00;100083.59;5015774;28;20053;-67
2021/07/04 02:08:40;;;;;;;10.75;7.20;;;;;;;18.38;100.00;100080.50;5001684;28;20056;-67
2021/07/04 02:11:23;;;;;;;7.93;6.82;;;;;;;18.34;100.00;100074.66;5016803;28;20056;-67
2021/07/04 02:14:07;;;;;;;8.50;6.55;;;;;;;18.37;100.00;100076.13;5015691;28;20125;-67
2021/07/04 02:16:51;;;;;;;11.43;7.30;;;;;;;18.35;100.00;100076.34;5016677;28;20113;-66
2021/07/04 02:19:36;;;;;;;9.27;7.22;;;;;;;18.40;100.00;100079.28;5015660;28;20052;-67
2021/07/04 02:22:20;;;;;;;10.27;7.07;;;;;;;18.38;100.00;100070.53;5015515;28;20115;-67
2021/07/04 02:25:04;;;;;;;10.68;7.30;;;;;;;18.38;100.00;100067.00;5015512;28;20051;-66
2021/07/04 02:27:49;;;;;;;9.02;6.97;;;;;;;18.40;100.00;100063.06;5015331;28;20072;-66
2021/07/04 02:30:34;;;;;;;11.80;7.50;;;;;;;18.37;100.00;100068.03;5015413;28;20045;-66
2021/07/04 02:33:19;;;;;;;6.85;6.03;;;;;;;18.38;100.00;100067.84;5015347;28;20048;-66
2021/07/04 02:36:03;;;;;;;10.73;7.30;;;;;;;18.39;100.00;100077.59;5015087;28;20053;-67
2021/07/04 02:38:47;;;;;;;8.90;7.20;;;;;;;18.40;100.00;100073.88;5015024;28;20106;-67
2021/07/04 02:41:32;;;;;;;11.30;6.88;;;;;;;18.39;100.00;100073.03;5015476;28;20104;-67
2021/07/04 02:44:16;;;;;;;8.10;6.95;;;;;;;18.43;100.00;100073.47;5015791;28;20049;-67
2021/07/04 02:47:00;;;;;;;8.20;7.40;;;;;;;18.44;100.00;100069.72;5001039;28;20124;-66
2021/07/04 02:49:43;;;;;;;9.55;7.15;;;;;;;18.42;100.00;100063.69;5015083;28;20465;-66
2021/07/04 02:52:27;;;;;;;8.00;7.20;;;;;;;18.47;100.00;100063.97;5014369;28;20057;-67
2021/07/04 02:55:11;;;;;;;9.77;6.82;;;;;;;18.48;100.00;100068.31;5015958;28;20069;-66
2021/07/04 02:57:56;;;;;;;12.30;7.60;;;;;;;18.47;100.00;100072.06;5014607;28;20569;-67
2021/07/04 03:00:41;;;;;;;9.80;7.40;;;;;;;18.48;100.00;100071.84;5015606;28;20072;-67
2021/07/04 03:03:25;;;;;;;10.55;7.43;;;;;;;18.47;100.00;100067.47;5014724;28;20108;-67
2021/07/04 03:06:09;;;;;;;9.52;6.95;;;;;;;18.47;100.00;100067.47;5015387;28;20127;-67
2021/07/04 03:08:53;;;;;;;8.57;6.90;;;;;;;18.50;100.00;100068.94;5014724;28;20462;-66
2021/07/04 03:11:37;;;;;;;10.95;7.53;;;;;;;18.47;100.00;100066.66;5014341;28;20084;-66
2021/07/04 03:14:22;;;;;;;9.18;7.50;;;;;;;18.47;100.00;100070.16;5015531;28;20069;-64
2021/07/04 03:17:06;;;;;;;10.52;7.47;;;;;;;18.48;100.00;100060.22;5014199;28;20107;-66
2021/07/04 03:19:49;;;;;;;10.05;7.30;;;;;;;18.49;100.00;100060.00;5015477;28;20466;-67
2021/07/04 03:22:34;;;;;;;10.43;7.07;;;;;;;18.48;100.00;100060.22;5015378;28;20079;-66
2021/07/04 03:25:18;;;;;;;7.97;7.18;;;;;;;18.49;100.00;100056.50;5014359;28;20080;-66
2021/07/04 03:28:03;;;;;;;11.57;7.60;;;;;;;18.48;100.00;100050.25;5014017;28;20049;-66
2021/07/04 03:30:46;;;;;;;10.18;8.20;;;;;;;18.50;100.00;100056.28;5014340;28;20053;-67
2021/07/04 03:33:30;;;;;;;10.55;7.43;;;;;;;18.53;100.00;100055.03;5014054;28;20044;-67
2021/07/04 03:36:14;;;;;;;11.98;7.45;;;;;;;18.59;100.00;100051.56;5038652;22;20057;-69
2021/07/04 03:38:58;;;;;;;7.80;6.97;;;;;;;18.61;100.00;100053.03;5014638;28;20068;-66
2021/07/04 03:41:42;;;;;;;9.90;7.32;;;;;;;18.65;100.00;100061.53;5014794;28;20434;-65
2021/07/04 03:44:26;;;;;;;11.05;7.80;;;;;;;18.70;100.00;100048.28;5014031;28;20053;-67
2021/07/04 03:47:10;;;;;;;9.60;6.95;;;;;;;18.68;100.00;100053.06;5013916;28;20057;-67
2021/07/04 03:49:55;;;;;;;10.27;8.02;;;;;;;18.72;100.00;100052.44;5014622;28;20569;-66
2021/07/04 03:52:39;;;;;;;10.02;6.93;;;;;;;18.78;100.00;100058.91;5013830;28;20091;-65
2021/07/04 03:55:24;;;;;;;9.20;7.78;;;;;;;18.77;100.00;100060.75;5014833;28;20045;-66
2021/07/04 03:58:08;;;;;;;8.98;7.38;;;;;;;18.78;100.00;100056.22;5014742;28;20048;-66
2021/07/04 04:00:52;;;;;;;9.52;6.95;;;;;;;18.86;100.00;100058.75;5013799;28;20084;-66
2021/07/04 04:03:36;;;;;;;9.85;7.10;;;;;;;18.87;100.00;100058.53;5012777;28;20080;-66
2021/07/04 04:06:21;;;;;;;9.35;7.55;;;;;;;18.87;100.00;100061.22;5014468;28;20112;-67
2021/07/04 04:09:04;;;;;;;9.45;6.53;;;;;;;18.93;100.00;100064.97;5014819;28;20088;-66
2021/07/04 04:11:48;;;;;;;8.13;6.30;;;;;;;18.96;100.00;100064.56;5014284;28;20141;-67
2021/07/04 04:14:33;;;;;;;7.65;6.60;;;;;;;19.02;100.00;100077.28;5013401;28;20103;-66
2021/07/04 04:17:16;;;;;;;7.85;6.53;;;;;;;19.07;100.00;100074.81;5014118;28;20049;-66
2021/07/04 04:20:01;;;;;;;8.82;7.20;;;;;;;19.12;100.00;100072.31;5013687;28;20044;-67
2021/07/04 04:22:45;;;;;;;8.20;6.88;;;;;;;19.13;100.00;100076.69;5014250;28;20107;-67
2021/07/04 04:25:29;;;;;;;8.48;6.78;;;;;;;19.18;100.00;100069.66;5014315;28;20088;-66
2021/07/04 04:28:13;;;;;;;7.82;6.78;;;;;;;19.22;100.00;100064.69;5013948;28;20135;-66
2021/07/04 04:30:57;;;;;;;9.63;7.10;;;;;;;19.25;100.00;100069.69;5013125;28;20055;-66
2021/07/04 04:33:41;;;;;;;8.18;6.82;;;;;;;19.28;100.00;100066.59;5013216;28;20075;-67
2021/07/04 04:36:24;;;;;;;10.05;7.40;;;;;;;19.31;100.00;100063.47;5012947;28;20180;-67
2021/07/04 04:39:09;;;;;;;7.93;6.57;;;;;;;19.38;100.00;100069.72;5013966;28;20503;-66
2021/07/04 04:41:53;;;;;;;8.02;7.10;;;;;;;19.32;100.00;100065.13;4999467;28;20536;-67
2021/07/04 04:44:37;;;;;;;10.65;7.45;;;;;;;19.37;100.00;100057.25;4999086;28;20053;-67
2021/07/04 04:47:20;;;;;;;9.27;6.65;;;;;;;19.40;100.00;100048.72;5013028;28;20104;-67
2021/07/04 04:50:06;;;;;;;7.90;6.55;;;;;;;19.48;100.00;100048.53;5013941;28;20123;-66
2021/07/04 04:52:51;;;;;;;7.60;6.50;;;;;;;19.46;100.00;100046.03;5012665;28;20518;-66
2021/07/04 04:55:35;;;;;;;8.90;6.68;;;;;;;19.50;100.00;100041.03;5013812;28;20422;-67
2021/07/04 04:58:19;;;;;;;8.02;6.63;;;;;;;19.59;100.00;100045.22;4998915;28;20057;-66
2021/07/04 05:01:03;;;;;;;8.85;7.03;;;;;;;19.63;100.00;100035.63;5012775;28;20466;-66
2021/07/04 05:03:47;;;;;;;7.75;6.50;;;;;;;19.61;100.00;100027.72;5013703;28;20048;-66
2021/07/04 05:06:31;;;;;;;;;;;;;;;19.61;100.00;100027.72;5012827;28;20133;-66
2021/07/04 05:09:15;;;;;;;8.88;6.95;;;;;;;19.67;100.00;100026.06;5012702;28;20396;-66
2021/07/04 05:11:59;;;;;;;9.13;6.38;;;;;;;19.67;100.00;100020.66;5012419;28;20052;-66
2021/07/04 05:14:43;;;;;;;7.78;6.53;;;;;;;19.68;100.00;100019.63;5026362;28;20048;-66
2021/07/04 05:17:27;;;;;;;7.85;6.75;;;;;;;19.69;100.00;100029.41;5013563;28;20084;-67
2021/07/04 05:20:11;;;;;;;7.28;6.50;;;;;;;19.73;100.00;100019.81;5012347;28;20418;-67
2021/07/04 05:22:55;;;;;;;7.55;6.40;;;;;;;19.80;100.00;100018.78;5012421;28;20052;-67
2021/07/04 05:25:39;;;;;;;8.18;6.72;;;;;;;19.80;100.00;100015.25;5013797;28;20053;-66
2021/07/04 05:28:23;;;;;;;8.63;6.78;;;;;;;19.86;100.00;100014.41;5013458;28;20072;-66
2021/07/04 05:31:08;;;;;;;9.68;6.95;;;;;;;19.90;100.00;100004.84;5012378;28;20044;-67
2021/07/04 05:33:52;;;;;;;8.43;7.30;;;;;;;19.97;100.00;100005.63;5013185;28;20076;-65
2021/07/04 05:36:36;;;;;;;8.50;7.13;;;;;;;20.04;100.00;100001.09;5012947;28;20049;-67
2021/07/04 05:39:20;;;;;;;8.45;7.00;;;;;;;20.10;100.00;100002.97;5012317;28;20041;-67
2021/07/04 05:42:05;;;;;;;7.82;6.75;;;;;;;19.99;100.00;99995.47;5013373;28;20103;-67
2021/07/04 05:44:51;;;;;;;7.97;6.75;;;;;;;20.09;100.00;99998.59;5012340;28;20092;-66
2021/07/04 05:47:34;;;;;;;8.18;6.88;;;;;;;20.16;100.00;99999.41;5012404;28;20152;-67
2021/07/04 05:50:19;;;;;;;12.57;7.45;;;;;;;20.29;100.00;99991.22;5012111;28;20053;-66
2021/07/04 05:53:03;;;;;;;9.20;7.55;;;;;;;20.46;100.00;99997.84;5012326;28;20052;-66
2021/07/04 05:55:47;;;;;;;7.40;6.40;;;;;;;20.51;100.00;99998.88;5012217;28;20049;-67
2021/07/04 05:58:31;;;;;;;8.80;6.75;;;;;;;20.55;100.00;100002.84;5012125;28;20107;-66
2021/07/04 06:01:15;;;;;;;8.32;7.18;;;;;;;20.59;98.11;99992.38;5026183;28;20049;-67
2021/07/04 06:03:59;;;;;;;8.98;7.30;;;;;;;20.65;99.07;100000.50;5012644;28;20076;-66
2021/07/04 06:06:42;;;;;;;;;;;;;;;20.79;97.73;99995.81;5011661;28;20429;-66
2021/07/04 06:09:26;;;;;;;9.87;6.53;;;;;;;20.96;96.54;99994.31;5012665;28;19920;-66
2021/07/04 06:12:11;;;;;;;8.27;6.80;;;;;;;20.96;94.93;99997.03;5012331;28;20053;-66
2021/07/04 06:14:54;;;;;;;7.63;6.80;;;;;;;20.99;94.86;99996.59;5012159;28;20227;-67
2021/07/04 06:17:38;;;;;;;7.05;6.35;;;;;;;21.32;93.79;99993.47;4997218;28;20133;-67
2021/07/04 06:20:23;;;;;;;7.88;6.72;;;;;;;21.31;92.09;99999.09;5011188;28;20514;-67
2021/07/04 06:23:07;;;;;;;8.93;6.35;;;;;;;21.43;91.26;100006.31;5011204;28;20049;-66
2021/07/04 06:25:51;;;;;;;9.18;6.65;;;;;;;21.32;92.45;100007.03;5011061;28;20099;-67
2021/07/04 06:28:35;;;;;;;8.13;6.70;;;;;;;21.24;92.22;99999.16;5014457;28;20057;-66
2021/07/04 06:31:19;;;;;;;7.35;6.57;;;;;;;21.45;91.99;99995.22;5015705;28;20103;-66
2021/07/04 06:34:03;;;;;;;8.73;6.40;;;;;;;21.63;89.64;99995.28;5014615;28;20103;-66
2021/07/04 06:36:47;;;;;;;9.30;6.78;;;;;;;21.73;88.36;99990.22;5015282;28;20052;-65
2021/07/04 06:39:31;;;;;;;10.15;6.50;;;;;;;21.43;89.86;99984.63;5014561;28;20517;-67
2021/07/04 06:42:15;;;;;;;8.98;7.35;;;;;;;21.38;88.47;99986.34;5015475;28;20052;-67
2021/07/04 06:44:58;;;;;;;7.43;6.72;;;;;;;21.27;90.73;99995.16;5014449;28;20084;-67
2021/07/04 06:47:45;;;;;;;9.32;6.82;;;;;;;21.27;90.38;99990.56;5014357;28;20057;-67
2021/07/04 06:50:29;;;;;;;9.05;7.10;;;;;;;21.28;91.99;99996.84;5014273;28;20087;-67
2021/07/04 06:53:13;;;;;;;7.65;6.60;;;;;;;21.28;90.97;99997.66;5014351;28;20078;-66
2021/07/04 06:55:57;;;;;;;8.98;6.70;;;;;;;21.51;91.04;100000.59;5015043;28;20522;-65
2021/07/04 06:58:41;;;;;;;9.18;6.80;;;;;;;21.76;89.29;99987.91;5013961;28;20630;-67
2021/07/04 07:01:25;;;;;;;10.10;7.38;;;;;;;21.82;88.16;99987.03;5013952;28;20060;-66
2021/07/04 07:04:08;;;;;;;11.32;7.18;;;;;;;22.01;87.37;99996.84;5013911;28;20133;-67
2021/07/04 07:06:52;;;;;;;9.60;7.07;;;;;;;22.02;86.29;99994.97;5014834;28;20229;-67
2021/07/04 07:09:36;;;;;;;8.13;7.35;;;;;;;22.37;85.38;99974.31;5014235;28;20052;-66
2021/07/04 07:12:20;;;;;;;;;;;;;;;22.68;83.30;99969.56;5015111;28;20111;-67
2021/07/04 07:15:05;;;;;;;8.57;7.07;;;;;;;23.05;81.56;99971.16;5015076;28;19972;-67
2021/07/04 07:17:48;;;;;;;8.82;6.80;;;;;;;22.99;79.87;99966.63;5013579;28;20053;-66
2021/07/04 07:20:32;;;;;;;9.30;7.25;;;;;;;22.84;81.26;99974.34;5014575;28;20419;-66
2021/07/04 07:23:16;;;;;;;7.57;6.63;;;;;;;23.02;81.41;99971.59;5013490;28;20052;-67
2021/07/04 07:26:01;;;;;;;7.97;6.43;;;;;;;23.37;79.67;99975.28;5014941;28;20450;-67
2021/07/04 07:28:45;;;;;;;9.18;6.47;;;;;;;23.53;78.67;99973.78;5013312;28;20410;-67
2021/07/04 07:31:31;;;;;;;8.77;6.60;;;;;;;23.41;78.29;99971.03;5014622;28;20056;-67
2021/07/04 07:34:15;;;;;;;8.98;6.35;;;;;;;23.21;78.02;99969.69;5013380;28;20045;-67
2021/07/04 07:36:59;;;;;;;10.73;6.70;;;;;;;23.17;77.87;99969.31;5013073;28;20080;-67
2021/07/04 07:39:42;;;;;;;8.60;6.53;;;;;;;23.19;77.95;99967.19;5014458;28;20053;-66
2021/07/04 07:42:26;;;;;;;8.32;6.28;;;;;;;23.41;77.03;99962.88;5013291;28;20512;-66
2021/07/04 07:45:10;;;;;;;8.57;6.97;;;;;;;23.70;74.79;99964.69;5014382;28;20489;-67
2021/07/04 07:47:55;;;;;;;8.30;6.25;;;;;;;23.91;74.52;99955.97;5013147;28;20051;-66
2021/07/04 07:50:39;;;;;;;8.23;6.88;;;;;;;24.16;71.70;99953.78;5013208;28;20127;-67
2021/07/04 07:53:24;;;;;;;9.07;6.57;;;;;;;24.09;72.38;99950.38;5027016;28;20069;-67
2021/07/04 07:56:08;;;;;;;7.82;6.60;;;;;;;23.87;73.64;99949.34;5014394;28;20100;-67
2021/07/04 07:58:52;;;;;;;8.77;6.93;;;;;;;23.61;74.50;99944.31;5013350;28;20048;-66
2021/07/04 08:01:36;;;;;;;8.90;6.93;;;;;;;23.12;75.44;99944.69;5013979;28;20065;-67
2021/07/04 08:04:20;;;;;;;;;;;;;;;23.09;77.74;99939.72;5013365;28;20191;-66
2021/07/04 08:07:04;;;;;;;8.60;7.05;;;;;;;23.41;76.83;99943.00;4998797;28;20147;-67
2021/07/04 08:09:48;;;;;;;8.38;7.43;;;;;;;23.10;76.42;99930.50;5014045;28;20149;-66
2021/07/04 08:12:32;;;;;;;10.60;7.15;;;;;;;22.99;77.35;99931.28;5012888;28;20053;-66
2021/07/04 08:15:16;;;;;;;10.23;6.70;;;;;;;23.24;77.84;99934.69;5013743;28;20513;-67
2021/07/04 08:18:00;;;;;;;7.57;6.78;;;;;;;23.49;75.80;99937.19;5013588;28;20561;-67
2021/07/04 08:20:44;;;;;;;8.20;6.97;;;;;;;23.37;74.28;99931.78;5013660;28;20120;-67
2021/07/04 08:23:28;;;;;;;8.30;6.72;;;;;;;23.83;73.05;99925.53;5026251;28;20191;-67
2021/07/04 08:26:12;;;;;;;;;;;;;;;24.23;73.10;99916.38;5013064;28;20057;-67
2021/07/04 08:28:56;;;;;;;10.80;7.25;;;;;;;24.39;70.75;99921.06;4998653;28;20012;-67
2021/07/04 08:31:40;;;;;;;;;;;;;;;24.65;69.48;99920.53;4999026;28;20424;-67
2021/07/04 08:34:24;;;;;;;9.20;6.60;;;;;;;24.64;68.49;99918.88;5012382;28;19944;-66
2021/07/04 08:37:08;;;;;;;;;;;;;;;24.66;68.52;99922.19;4998715;28;20136;-67
2021/07/04 08:39:52;;;;;;;8.27;6.70;;;;;;;24.31;70.58;99916.00;5012392;28;19951;-66
2021/07/04 08:42:36;;;;;;;7.70;6.90;;;;;;;24.76;69.01;99911.47;5012063;28;20052;-67
2021/07/04 08:45:20;;;;;;;7.35;6.50;;;;;;;24.72;67.73;99908.41;5012272;28;20072;-67
2021/07/04 08:48:05;;;;;;;;;;;;;;;24.84;67.30;99909.19;5012568;28;20052;-67
2021/07/04 08:50:49;;;;;;;7.82;6.32;;;;;;;25.13;65.93;99915.44;5011663;28;19990;-67
2021/07/04 08:53:34;;;;;;;7.78;6.32;;;;;;;24.82;68.15;99915.97;5013210;28;20561;-67
2021/07/04 08:56:18;;;;;;;8.98;6.90;;;;;;;24.42;69.01;99915.94;4998157;28;20096;-67
2021/07/04 08:59:02;;;;;;;;;;;;;;;24.27;71.06;99922.97;5012473;28;20053;-67
2021/07/04 09:01:48;;;;;;;7.45;6.55;;;;;;;24.17;72.39;99918.16;5012136;28;19920;-67
2021/07/04 09:04:32;;;;;;;8.93;7.07;;;;;;;24.13;73.12;99927.03;5013230;28;20069;-67
2021/07/04 09:07:24;;;;;;;10.43;8.23;;;;;;;23.67;72.16;99921.63;5012702;28;20048;-67
2021/07/04 09:10:14;;;;;;;9.05;7.97;;;;;;;23.76;73.58;99919.34;5012958;28;20048;-67
2021/07/04 09:13:03;;;;;;;12.07;7.40;;;;;;;23.88;73.50;99912.03;5012718;28;20125;-66
2021/07/04 09:16:05;;;;;;;8.77;7.47;;;;;;;23.76;72.48;99912.00;5013405;28;20061;-67
2021/07/04 09:19:16;;;;;;;7.97;7.10;;;;;;;23.64;74.01;99903.03;5012741;28;20069;-66
2021/07/04 09:22:04;;;;;;;10.63;7.68;;;;;;;;;;5013113;28;20462;-66
2021/07/04 09:24:48;;;;;;;8.25;7.35;;;;;;;23.85;73.33;99907.09;5012571;28;20096;-66
2021/07/04 09:27:31;;;;;;;9.93;7.68;;;;;;;24.07;71.61;99898.03;4997619;28;20096;-67
2021/07/04 09:30:16;;;;;;;;;;;;;;;24.07;71.82;99894.50;4998320;28;20044;-67
2021/07/04 09:33:12;;;;;;;8.40;7.55;;;;;;;24.25;71.56;99886.97;5012696;28;20002;-67
2021/07/04 09:35:58;;;;;;;11.40;7.82;;;;;;;24.15;74.67;99897.66;5011726;28;20049;-67
2021/07/04 09:38:43;;;;;;;11.85;7.63;;;;;;;23.96;73.67;99898.88;5012793;28;20123;-67
2021/07/04 09:41:27;;;;;;;9.05;7.50;;;;;;;23.86;77.49;99904.09;5011455;28;20081;-66
2021/07/04 09:44:24;;;;;;;9.57;7.10;;;;;;;23.56;78.71;99891.66;5011410;28;20100;-67
2021/07/04 09:47:15;;;;;;;10.95;7.57;;;;;;;23.60;79.24;99888.25;5011366;28;20230;-67
2021/07/04 09:50:04;;;;;;;8.30;7.22;;;;;;;23.60;81.55;99892.84;4998111;28;20053;-67
2021/07/04 09:53:02;;;;;;;7.82;6.75;;;;;;;23.62;85.00;99891.53;5011594;28;20057;-66
2021/07/04 09:55:52;;;;;;;8.18;6.85;;;;;;;23.16;88.25;99886.09;5043130;22;20048;-65
2021/07/04 09:58:38;;;;;;;12.20;8.45;;;;;;;22.70;92.17;99880.50;5032174;28;20099;-65
2021/07/04 10:01:39;;;;;;;10.07;7.90;;;;;;;22.48;96.82;99870.34;5032151;28;20044;-66
2021/07/04 10:04:32;;;;;;;11.00;7.80;;;;;;;22.39;99.20;99875.25;5034789;28;20114;-66
2021/07/04 10:07:16;;;;;;;8.90;7.57;;;;;;;22.52;100.00;99864.22;5034656;28;20103;-65
2021/07/04 10:10:00;;;;;;;8.57;7.45;;;;;;;22.48;98.25;99860.34;5034685;28;20478;-65
2021/07/04 10:12:44;;;;;;;;;;;;;;;22.70;97.64;99864.19;5035196;28;20091;-66
2021/07/04 10:15:28;;;;;;;7.00;6.30;;;;;;;22.43;88.75;99862.88;5034611;28;19984;-63
2021/07/04 10:18:13;;;;;;;8.52;6.82;;;;;;;22.54;92.17;99866.72;5020831;28;20190;-65
2021/07/04 10:20:56;;;;;;;7.10;6.15;;;;;;;22.78;90.76;99871.16;5034449;28;20052;-65
2021/07/04 10:23:50;;;;;;;;;;;;;;;23.00;87.17;99878.56;5035324;28;20457;-65
2021/07/04 10:26:36;;;;;;;7.53;6.28;;;;;;;22.95;87.02;99883.03;5020378;28;19919;-65
2021/07/04 10:29:23;;;;;;;6.72;6.03;;;;;;;23.34;85.97;99877.81;5034497;28;20116;-66
2021/07/04 10:32:09;;;;;;;8.55;5.95;;;;;;;23.34;80.72;99877.81;5035574;28;20087;-63
2021/07/04 10:34:53;;;;;;;5.68;5.18;;;;;;;23.14;78.38;99877.31;5034422;28;20047;-65
2021/07/04 10:37:38;;;;;;;;;;;;;;;23.02;83.41;99868.28;5034768;28;20052;-65
2021/07/04 10:40:22;;;;;;;9.07;5.57;;;;;;;22.89;83.14;99860.34;5034377;28;19920;-65
2021/07/04 10:43:07;;;;;;;7.00;5.63;;;;;;;22.84;84.63;99846.59;5034302;28;20056;-65
2021/07/04 10:45:51;;;;;;;6.93;5.75;;;;;;;22.95;85.58;99845.84;5034210;28;20075;-65
2021/07/04 10:48:35;;;;;;;8.10;5.50;;;;;;;22.86;82.67;99840.94;5020140;28;20557;-65
2021/07/04 10:51:20;;;;;;;7.45;5.85;;;;;;;22.84;82.77;99848.50;5033951;28;20048;-65
2021/07/04 10:54:04;;;;;;;5.95;5.40;;;;;;;22.70;82.27;99842.44;5035166;28;20064;-66
2021/07/04 10:56:48;;;;;;;;;;;;;;;22.55;82.89;99842.06;5034024;28;20445;-65
2021/07/04 10:59:32;;;;;;;6.10;5.50;;;;;;;22.81;82.83;99838.94;5020256;28;19920;-64
2021/07/04 11:02:36;;;;;;;6.47;5.60;;;;;;;22.64;83.09;99837.97;5034980;28;20643;-66
2021/07/04 11:05:41;;;;;;;6.82;5.72;;;;;;;22.71;84.85;99827.00;5019672;28;20115;-64
2021/07/04 11:08:27;;;;;;;7.85;6.03;;;;;;;22.60;86.38;99831.31;5034625;28;20106;-65
2021/07/04 11:11:12;;;;;;;7.72;6.35;;;;;;;22.34;92.54;99830.84;5033750;28;20051;-66
2021/07/04 11:14:07;;;;;;;8.65;6.38;;;;;;;21.96;98.86;99835.72;5034093;28;20047;-65
2021/07/04 11:17:01;;;;;;;8.48;6.03;;;;;;;21.40;100.00;99846.72;5033492;28;20114;-64
2021/07/04 11:20:05;;;;;;;7.15;6.40;;;;;;;21.06;100.00;99851.03;5033862;28;20056;-64
2021/07/04 11:22:57;;;;;;;14.43;7.55;;;;;;;20.88;100.00;99848.25;5033320;28;20510;-64
2021/07/04 11:25:43;;;;;;;9.13;7.65;;;;;;;20.84;100.00;99847.81;5019187;28;20414;-65
2021/07/04 11:28:29;;;;;;;8.98;6.95;;;;;;;20.80;100.00;99845.78;5033495;28;20081;-65
2021/07/04 11:31:13;;;;;;;13.00;7.72;;;;;;;20.91;100.00;99837.00;5033514;28;20048;-65
2021/07/04 11:34:02;;;;;;;9.40;6.35;;;;;;;20.81;100.00;99831.19;5034444;28;20048;-65
2021/07/04 11:36:46;;;;;;;12.35;7.18;;;;;;;20.89;100.00;99844.50;5034253;28;20048;-67
2021/07/04 11:39:30;;;;;;;8.63;7.18;;;;;;;20.85;100.00;99843.25;5033076;28;20056;-65
2021/07/04 11:42:23;;;;;;;10.65;7.43;;;;;;;20.98;100.00;99840.47;5034279;28;20083;-66
2021/07/04 11:45:17;;;;;;;7.78;6.57;;;;;;;21.06;100.00;99840.19;5033104;28;20143;-65
2021/07/04 11:48:00;;;;;;;9.27;6.72;;;;;;;21.16;100.00;99840.50;5032904;28;20068;-65
2021/07/04 11:50:52;;;;;;;9.38;6.90;;;;;;;21.13;100.00;99838.25;5033109;28;20123;-65
2021/07/04 11:53:52;;;;;;;11.93;6.68;;;;;;;21.37;100.00;99839.06;5033063;28;20374;-64
2021/07/04 11:56:38;;;;;;;7.35;5.97;;;;;;;21.68;100.00;99830.81;5032548;28;20060;-65
2021/07/04 11:59:27;;;;;;;6.13;5.32;;;;;;;21.81;100.00;99824.44;5019247;28;20052;-66
2021/07/04 12:02:11;;;;;;;5.85;4.78;;;;;;;21.96;100.00;99828.41;5033684;28;20052;-65
2021/07/04 12:04:55;;;;;;;6.28;5.00;;;;;;;21.89;100.00;99824.94;5019104;28;20402;-66
2021/07/04 12:07:40;;;;;;;7.22;4.72;;;;;;;22.26;100.00;99817.56;5018867;28;20083;-66
2021/07/04 12:10:24;;;;;;;6.65;4.70;;;;;;;23.15;100.00;99810.16;5032671;28;20474;-66
2021/07/04 12:13:12;;;;;;;7.78;4.28;;;;;;;23.22;96.06;99798.09;5032731;28;20130;-65
2021/07/04 12:16:01;;;;;;;4.55;3.85;;;;;;;24.05;88.44;99788.53;5033289;28;20529;-66
2021/07/04 12:18:45;;;;;;;4.05;3.47;;;;;;;24.55;85.33;99789.50;5033572;28;20056;-66
2021/07/04 12:21:37;;;;;;;4.20;3.80;;;;;;;24.83;79.28;99786.75;5033339;28;20103;-66
2021/07/04 12:24:30;;;;;;;5.18;3.90;;;;;;;24.84;81.18;99786.50;5031385;28;20052;-66
2021/07/04 12:27:14;;;;;;;4.22;3.33;;;;;;;24.24;79.34;99779.94;5032297;28;20465;-65
2021/07/04 12:30:08;;;;;;;3.70;3.10;;;;;;;23.98;80.41;99766.06;5033373;28;20195;-66
2021/07/04 12:32:57;;;;;;;3.05;2.75;;;;;;;23.62;73.49;99771.81;5033604;28;20056;-65
2021/07/04 12:35:47;;;;;;;3.80;3.00;;;;;;;23.78;77.85;99772.97;5031969;28;20522;-66
2021/07/04 12:38:36;;;;;;;3.30;3.00;;;;;;;24.13;75.98;99771.81;5033224;28;20099;-66
2021/07/04 12:41:19;;;;;;;4.68;3.17;;;;;;;24.34;74.20;99774.69;5031853;28;20051;-66
2021/07/04 12:44:11;;;;;;;;;;;;;;;24.31;72.72;99766.97;5032456;28;20099;-66
2021/07/04 12:46:55;;;;;;;3.83;2.97;;;;;;;24.61;72.36;99762.09;5031790;28;19924;-66
2021/07/04 12:49:39;;;;;;;4.00;2.72;;;;;;;24.78;74.75;99767.56;5031891;28;20155;-67
2021/07/04 12:52:23;;;;;;;;;;;;;;;25.17;72.98;99750.19;5032490;28;20513;-66
2021/07/04 12:55:07;;;;;;;5.23;3.80;;;;;;;25.24;69.30;99745.41;5031727;28;19935;-66